sensor_id;sensor_type;location;lat;lon;timestamp;pressure;altitude;pressure_sealevel;temperature;humidity
52625;BME280;38519;52.540;13.410;2023-03-09T00:01:28;98712.38;;;0.46;100.00
52625;BME280;38519;52.540;13.410;2023-03-09T00:03:55;98707.25;;;0.46;100.00
52625;BME280;38519;52.540;13.410;2023-03-09T00:06:21;98719.94;;;0.44;100.00
52625;BME280;38519;52.540;13.410;2023-03-09T00:08:46;98716.38;;;0.32;100.00
52625;BME280;38519;52.540;13.410;2023-03-09T00:11:12;98725.00;;;0.32;100.00
52625;BME280;38519;52.540;13.410;2023-03-09T00:13:38;98726.53;;;0.30;100.00
52625;BME280;38519;52.540;13.410;2023-03-09T00:16:13;98719.63;;;0.29;100.00
52625;BME280;38519;52.540;13.410;2023-03-09T00:18:39;98723.44;;;0.34;100.00
52625;BME280;38519;52.540;13.410;2023-03-09T00:21:04;98722.69;;;0.35;100.00
52625;BME280;38519;52.540;13.410;2023-03-09T00:23:30;98724.09;;;0.32;100.00
52625;BME280;38519;52.540;13.410;2023-03-09T00:25:55;98723.16;;;0.42;100.00
52625;BME280;38519;52.540;13.410;2023-03-09T00:28:27;98727.53;;;0.43;100.00
52625;BME280;38519;52.540;13.410;2023-03-09T00:30:52;98718.81;;;0.41;100.00
52625;BME280;38519;52.540;13.410;2023-03-09T00:33:17;98727.41;;;0.41;100.00
52625;BME280;38519;52.540;13.410;2023-03-09T00:35:42;98720.88;;;0.34;100.00
52625;BME280;38519;52.540;13.410;2023-03-09T00:38:08;98722.31;;;0.31;100.00
52625;BME280;38519;52.540;13.410;2023-03-09T00:40:33;98727.16;;;0.38;100.00
52625;BME280;38519;52.540;13.410;2023-03-09T00:42:58;98723.16;;;0.42;100.00
52625;BME280;38519;52.540;13.410;2023-03-09T00:45:23;98727.53;;;0.43;100.00
52625;BME280;38519;52.540;13.410;2023-03-09T00:47:49;98722.69;;;0.35;100.00
52625;BME280;38519;52.540;13.410;2023-03-09T00:50:14;98724.69;;;0.50;100.00
52625;BME280;38519;52.540;13.410;2023-03-09T00:52:39;98721.38;;;0.41;100.00
52625;BME280;38519;52.540;13.410;2023-03-09T00:55:05;98715.00;;;0.58;100.00
52625;BME280;38519;52.540;13.410;2023-03-09T00:57:30;98717.50;;;0.46;100.00
52625;BME280;38519;52.540;13.410;2023-03-09T00:59:56;98712.66;;;0.39;100.00
52625;BME280;38519;52.540;13.410;2023-03-09T01:02:22;98720.88;;;0.34;100.00
52625;BME280;38519;52.540;13.410;2023-03-09T01:04:48;98713.81;;;0.32;100.00
52625;BME280;38519;52.540;13.410;2023-03-09T01:07:13;98707.00;;;0.43;100.00
52625;BME280;38519;52.540;13.410;2023-03-09T01:09:39;98709.03;;;0.47;100.00
52625;BME280;38519;52.540;13.410;2023-03-09T01:12:04;98696.78;;;0.32;100.00
52625;BME280;38519;52.540;13.410;2023-03-09T01:14:30;98696.28;;;0.26;100.00
52625;BME280;38519;52.540;13.410;2023-03-09T01:16:55;98690.28;;;0.48;100.00
52625;BME280;38519;52.540;13.410;2023-03-09T01:19:20;98695.53;;;0.49;100.00
52625;BME280;38519;52.540;13.410;2023-03-09T01:21:45;98689.50;;;0.49;100.00
52625;BME280;38519;52.540;13.410;2023-03-09T01:24:12;98689.06;;;0.32;100.00
52625;BME280;38519;52.540;13.410;2023-03-09T01:26:37;98687.38;;;0.33;100.00
52625;BME280;38519;52.540;13.410;2023-03-09T01:29:03;98691.66;;;0.22;100.00
52625;BME280;38519;52.540;13.410;2023-03-09T01:31:28;98685.84;;;0.35;100.00
52625;BME280;38519;52.540;13.410;2023-03-09T01:33:54;98683.38;;;0.47;100.00
52625;BME280;38519;52.540;13.410;2023-03-09T01:36:19;98686.38;;;0.53;100.00
52625;BME280;38519;52.540;13.410;2023-03-09T01:38:44;98681.31;;;0.43;100.00
52625;BME280;38519;52.540;13.410;2023-03-09T01:41:11;98680.56;;;0.33;100.00
52625;BME280;38519;52.540;13.410;2023-03-09T01:43:37;98669.16;;;0.30;100.00
52625;BME280;38519;52.540;13.410;2023-03-09T01:48:48;98672.03;;;0.23;100.00
52625;BME280;38519;52.540;13.410;2023-03-09T01:51:16;98682.66;;;0.27;100.00
52625;BME280;38519;52.540;13.410;2023-03-09T01:53:45;98677.75;;;0.41;100.00
52625;BME280;38519;52.540;13.410;2023-03-09T01:56:10;98679.06;;;0.25;100.00
52625;BME280;38519;52.540;13.410;2023-03-09T01:58:37;98674.69;;;0.34;100.00
52625;BME280;38519;52.540;13.410;2023-03-09T02:01:03;98670.84;;;0.29;100.00
52625;BME280;38519;52.540;13.410;2023-03-09T02:03:31;98666.09;;;0.34;100.00
52625;BME280;38519;52.540;13.410;2023-03-09T02:08:31;98662.81;;;0.14;100.00
52625;BME280;38519;52.540;13.410;2023-03-09T02:10:58;98662.41;;;0.20;100.00
52625;BME280;38519;52.540;13.410;2023-03-09T02:13:34;98663.16;;;0.19;100.00
52625;BME280;38519;52.540;13.410;2023-03-09T02:15:59;98663.66;;;0.25;100.00
52625;BME280;38519;52.540;13.410;2023-03-09T02:18:25;98664.59;;;0.26;100.00
52625;BME280;38519;52.540;13.410;2023-03-09T02:23:23;98670.03;;;0.08;100.00
52625;BME280;38519;52.540;13.410;2023-03-09T02:25:54;98662.72;;;0.03;100.00
52625;BME280;38519;52.540;13.410;2023-03-09T02:28:22;98663.72;;;0.15;100.00
52625;BME280;38519;52.540;13.410;2023-03-09T02:30:48;98650.09;;;0.16;100.00
52625;BME280;38519;52.540;13.410;2023-03-09T02:33:24;98644.56;;;0.22;100.00
52625;BME280;38519;52.540;13.410;2023-03-09T02:35:52;98640.56;;;0.25;100.00
52625;BME280;38519;52.540;13.410;2023-03-09T02:38:17;98636.44;;;0.27;100.00
52625;BME280;38519;52.540;13.410;2023-03-09T02:40:42;98642.38;;;0.26;100.00
52625;BME280;38519;52.540;13.410;2023-03-09T02:43:09;98639.06;;;0.17;100.00
52625;BME280;38519;52.540;13.410;2023-03-09T02:45:34;98635.03;;;0.31;100.00
52625;BME280;38519;52.540;13.410;2023-03-09T02:48:00;98630.88;;;0.11;100.00
52625;BME280;38519;52.540;13.410;2023-03-09T02:50:25;98637.25;;;0.16;100.00
52625;BME280;38519;52.540;13.410;2023-03-09T02:52:50;98635.88;;;0.09;100.00
52625;BME280;38519;52.540;13.410;2023-03-09T02:55:16;98623.78;;;0.18;100.00
52625;BME280;38519;52.540;13.410;2023-03-09T02:57:41;98626.72;;;0.23;100.00
52625;BME280;38519;52.540;13.410;2023-03-09T03:00:08;98626.03;;;0.04;100.00
52625;BME280;38519;52.540;13.410;2023-03-09T03:02:36;98631.31;;;-0.05;100.00
52625;BME280;38519;52.540;13.410;2023-03-09T03:05:01;98624.56;;;0.17;100.00
52625;BME280;38519;52.540;13.410;2023-03-09T03:07:27;98629.78;;;-0.03;100.00
52625;BME280;38519;52.540;13.410;2023-03-09T03:09:52;98625.13;;;0.03;100.00
52625;BME280;38519;52.540;13.410;2023-03-09T03:12:17;98631.56;;;-0.02;100.00
52625;BME280;38519;52.540;13.410;2023-03-09T03:14:43;98617.97;;;-0.11;100.00
52625;BME280;38519;52.540;13.410;2023-03-09T03:17:08;98630.28;;;-0.07;100.00
52625;BME280;38519;52.540;13.410;2023-03-09T03:19:34;98625.91;;;0.02;100.00
52625;BME280;38519;52.540;13.410;2023-03-09T03:21:59;98621.97;;;-0.05;100.00
52625;BME280;38519;52.540;13.410;2023-03-09T03:24:24;98630.47;;;-0.26;100.00
52625;BME280;38519;52.540;13.410;2023-03-09T03:26:49;98619.72;;;-0.22;100.00
52625;BME280;38519;52.540;13.410;2023-03-09T03:29:14;98615.34;;;-0.23;100.00
52625;BME280;38519;52.540;13.410;2023-03-09T03:31:40;98614.03;;;-0.18;100.00
52625;BME280;38519;52.540;13.410;2023-03-09T03:34:05;98613.22;;;-0.07;100.00
52625;BME280;38519;52.540;13.410;2023-03-09T03:36:31;98610.28;;;-0.11;100.00
52625;BME280;38519;52.540;13.410;2023-03-09T03:38:56;98610.47;;;-0.20;100.00
52625;BME280;38519;52.540;13.410;2023-03-09T03:41:21;98613.03;;;-0.20;100.00
52625;BME280;38519;52.540;13.410;2023-03-09T03:43:46;98615.97;;;-0.15;100.00
52625;BME280;38519;52.540;13.410;2023-03-09T03:46:12;98618.09;;;-0.10;100.00
52625;BME280;38519;52.540;13.410;2023-03-09T03:48:37;98617.50;;;-0.17;100.00
52625;BME280;38519;52.540;13.410;2023-03-09T03:51:03;98609.94;;;-0.16;100.00
52625;BME280;38519;52.540;13.410;2023-03-09T03:53:28;98613.03;;;-0.20;100.00
52625;BME280;38519;52.540;13.410;2023-03-09T03:55:53;98606.63;;;-0.35;100.00
52625;BME280;38519;52.540;13.410;2023-03-09T03:58:19;98599.50;;;-0.50;100.00
52625;BME280;38519;52.540;13.410;2023-03-09T04:00:44;98592.97;;;-0.57;100.00
52625;BME280;38519;52.540;13.410;2023-03-09T04:03:09;98599.75;;;-0.37;100.00
52625;BME280;38519;52.540;13.410;2023-03-09T04:05:35;98593.56;;;-0.28;100.00
52625;BME280;38519;52.540;13.410;2023-03-09T04:08:00;98596.03;;;-0.40;100.00
52625;BME280;38519;52.540;13.410;2023-03-09T04:10:25;98591.16;;;-0.47;100.00
52625;BME280;38519;52.540;13.410;2023-03-09T04:12:51;98589.63;;;-0.45;100.00
52625;BME280;38519;52.540;13.410;2023-03-09T04:15:16;98599.19;;;-0.32;100.00
52625;BME280;38519;52.540;13.410;2023-03-09T04:17:42;98592.81;;;-0.38;100.00
52625;BME280;38519;52.540;13.410;2023-03-09T04:20:07;98591.03;;;-0.49;100.00
52625;BME280;38519;52.540;13.410;2023-03-09T04:22:33;98595.13;;;-0.30;100.00
52625;BME280;38519;52.540;13.410;2023-03-09T04:24:58;98581.53;;;-0.50;100.00
52625;BME280;38519;52.540;13.410;2023-03-09T04:27:23;98578.97;;;-0.40;100.00
52625;BME280;38519;52.540;13.410;2023-03-09T04:29:48;98582.03;;;-0.33;100.00
52625;BME280;38519;52.540;13.410;2023-03-09T04:32:14;98589.84;;;-0.32;100.00
52625;BME280;38519;52.540;13.410;2023-03-09T04:34:39;98596.31;;;-0.58;100.00
52625;BME280;38519;52.540;13.410;2023-03-09T04:37:04;98602.19;;;-0.48;100.00
52625;BME280;38519;52.540;13.410;2023-03-09T04:39:29;98602.31;;;-0.47;100.00
52625;BME280;38519;52.540;13.410;2023-03-09T04:41:55;98588.47;;;-0.49;100.00
52625;BME280;38519;52.540;13.410;2023-03-09T04:44:20;98596.78;;;-0.51;100.00
52625;BME280;38519;52.540;13.410;2023-03-09T04:46:45;98595.91;;;-0.42;100.00
52625;BME280;38519;52.540;13.410;2023-03-09T04:49:10;98600.78;;;-0.45;100.00
52625;BME280;38519;52.540;13.410;2023-03-09T04:51:36;98598.59;;;-0.40;100.00
52625;BME280;38519;52.540;13.410;2023-03-09T04:54:01;98603.94;;;-0.37;100.00
52625;BME280;38519;52.540;13.410;2023-03-09T04:56:26;98608.72;;;-0.42;100.00
52625;BME280;38519;52.540;13.410;2023-03-09T04:58:51;98621.91;;;-0.37;100.00
52625;BME280;38519;52.540;13.410;2023-03-09T05:01:16;98621.22;;;-0.24;100.00
52625;BME280;38519;52.540;13.410;2023-03-09T05:03:42;98621.69;;;-0.40;100.00
52625;BME280;38519;52.540;13.410;2023-03-09T05:06:07;98629.09;;;-0.33;100.00
52625;BME280;38519;52.540;13.410;2023-03-09T05:08:32;98617.53;;;-0.28;100.00
52625;BME280;38519;52.540;13.410;2023-03-09T05:10:57;98621.78;;;-0.28;100.00
52625;BME280;38519;52.540;13.410;2023-03-09T05:13:23;98633.66;;;-0.19;100.00
52625;BME280;38519;52.540;13.410;2023-03-09T05:15:50;98637.38;;;-0.15;100.00
52625;BME280;38519;52.540;13.410;2023-03-09T05:18:16;98632.13;;;-0.16;100.00
52625;BME280;38519;52.540;13.410;2023-03-09T05:20:42;98635.25;;;-0.41;100.00
52625;BME280;38519;52.540;13.410;2023-03-09T05:23:07;98643.16;;;-0.28;100.00
52625;BME280;38519;52.540;13.410;2023-03-09T05:25:33;98647.78;;;-0.24;100.00
52625;BME280;38519;52.540;13.410;2023-03-09T05:27:58;98647.63;;;-0.15;100.00
52625;BME280;38519;52.540;13.410;2023-03-09T05:30:23;98645.22;;;-0.34;100.00
52625;BME280;38519;52.540;13.410;2023-03-09T05:32:49;98645.34;;;-0.32;100.00
52625;BME280;38519;52.540;13.410;2023-03-09T05:35:15;98649.44;;;-0.24;100.00
52625;BME280;38519;52.540;13.410;2023-03-09T05:37:40;98637.03;;;-0.30;100.00
52625;BME280;38519;52.540;13.410;2023-03-09T05:40:06;98648.28;;;-0.28;100.00
52625;BME280;38519;52.540;13.410;2023-03-09T05:42:32;98659.47;;;-0.27;100.00
52625;BME280;38519;52.540;13.410;2023-03-09T05:44:58;98648.72;;;-0.33;100.00
52625;BME280;38519;52.540;13.410;2023-03-09T05:47:25;98647.38;;;-0.18;100.00
52625;BME280;38519;52.540;13.410;2023-03-09T05:49:50;98652.28;;;-0.31;100.00
52625;BME280;38519;52.540;13.410;2023-03-09T05:52:15;98648.97;;;-0.41;100.00
52625;BME280;38519;52.540;13.410;2023-03-09T05:54:40;98650.47;;;-0.22;100.00
52625;BME280;38519;52.540;13.410;2023-03-09T05:57:06;98655.22;;;-0.27;100.00
52625;BME280;38519;52.540;13.410;2023-03-09T05:59:31;98656.34;;;-0.13;100.00
52625;BME280;38519;52.540;13.410;2023-03-09T06:01:57;98667.34;;;-0.04;100.00
52625;BME280;38519;52.540;13.410;2023-03-09T06:04:22;98668.56;;;-0.31;100.00
52625;BME280;38519;52.540;13.410;2023-03-09T06:06:47;98686.66;;;-0.19;100.00
52625;BME280;38519;52.540;13.410;2023-03-09T06:09:12;98684.34;;;-0.16;100.00
52625;BME280;38519;52.540;13.410;2023-03-09T06:11:38;98687.78;;;-0.26;100.00
52625;BME280;38519;52.540;13.410;2023-03-09T06:14:03;98684.09;;;-0.19;100.00
52625;BME280;38519;52.540;13.410;2023-03-09T06:16:28;98689.50;;;-0.37;100.00
52625;BME280;38519;52.540;13.410;2023-03-09T06:18:54;98696.38;;;-0.15;100.00
52625;BME280;38519;52.540;13.410;2023-03-09T06:21:20;98695.59;;;-0.24;100.00
52625;BME280;38519;52.540;13.410;2023-03-09T06:23:45;98684.88;;;-0.30;100.00
52625;BME280;38519;52.540;13.410;2023-03-09T06:26:11;98707.31;;;-0.38;100.00
52625;BME280;38519;52.540;13.410;2023-03-09T06:28:36;98711.16;;;-0.33;100.00
52625;BME280;38519;52.540;13.410;2023-03-09T06:31:08;98712.41;;;-0.28;100.00
52625;BME280;38519;52.540;13.410;2023-03-09T06:33:37;98710.78;;;-0.27;100.00
52625;BME280;38519;52.540;13.410;2023-03-09T06:36:02;98706.41;;;-0.28;100.00
52625;BME280;38519;52.540;13.410;2023-03-09T06:38:29;98713.81;;;-0.11;100.00
52625;BME280;38519;52.540;13.410;2023-03-09T06:40:54;98727.19;;;-0.25;100.00
52625;BME280;38519;52.540;13.410;2023-03-09T06:43:20;98728.81;;;-0.05;100.00
52625;BME280;38519;52.540;13.410;2023-03-09T06:45:45;98739.44;;;-0.01;100.00
52625;BME280;38519;52.540;13.410;2023-03-09T06:48:10;98743.03;;;0.02;100.00
52625;BME280;38519;52.540;13.410;2023-03-09T06:50:36;98748.41;;;0.15;100.00
52625;BME280;38519;52.540;13.410;2023-03-09T06:53:01;98753.38;;;0.24;100.00
52625;BME280;38519;52.540;13.410;2023-03-09T06:55:26;98746.75;;;0.05;100.00
52625;BME280;38519;52.540;13.410;2023-03-09T06:57:52;98754.84;;;0.10;100.00
52625;BME280;38519;52.540;13.410;2023-03-09T07:00:18;98757.69;;;-0.08;100.00
52625;BME280;38519;52.540;13.410;2023-03-09T07:02:43;98755.78;;;-0.21;100.00
52625;BME280;38519;52.540;13.410;2023-03-09T07:05:09;98762.44;;;-0.12;100.00
52625;BME280;38519;52.540;13.410;2023-03-09T07:07:34;98787.03;;;0.06;100.00
52625;BME280;38519;52.540;13.410;2023-03-09T07:09:59;98797.19;;;0.15;100.00
52625;BME280;38519;52.540;13.410;2023-03-09T07:12:24;98801.00;;;0.20;100.00
52625;BME280;38519;52.540;13.410;2023-03-09T07:14:50;98801.66;;;0.28;100.00
52625;BME280;38519;52.540;13.410;2023-03-09T07:17:17;98808.19;;;0.14;100.00
52625;BME280;38519;52.540;13.410;2023-03-09T07:19:42;98805.13;;;-0.03;100.00
52625;BME280;38519;52.540;13.410;2023-03-09T07:22:07;98816.53;;;0.22;100.00
52625;BME280;38519;52.540;13.410;2023-03-09T07:24:34;98821.28;;;0.17;100.00
52625;BME280;38519;52.540;13.410;2023-03-09T07:27:00;98820.13;;;0.34;100.00
52625;BME280;38519;52.540;13.410;2023-03-09T07:29:25;98833.31;;;0.49;100.00
52625;BME280;38519;52.540;13.410;2023-03-09T07:31:51;98836.66;;;0.38;100.00
52625;BME280;38519;52.540;13.410;2023-03-09T07:34:17;98839.13;;;0.26;100.00
52625;BME280;38519;52.540;13.410;2023-03-09T07:36:42;98837.44;;;0.16;100.00
52625;BME280;38519;52.540;13.410;2023-03-09T07:39:07;98839.00;;;0.04;100.00
52625;BME280;38519;52.540;13.410;2023-03-09T07:41:33;98843.25;;;-0.07;100.00
52625;BME280;38519;52.540;13.410;2023-03-09T07:44:00;98852.09;;;0.07;100.00
52625;BME280;38519;52.540;13.410;2023-03-09T07:46:25;98857.59;;;0.22;100.00
52625;BME280;38519;52.540;13.410;2023-03-09T07:48:50;98863.75;;;0.44;100.00
52625;BME280;38519;52.540;13.410;2023-03-09T07:51:16;98861.59;;;0.39;100.00
52625;BME280;38519;52.540;13.410;2023-03-09T07:53:42;98860.66;;;0.17;100.00
52625;BME280;38519;52.540;13.410;2023-03-09T07:56:07;98860.53;;;0.16;100.00
52625;BME280;38519;52.540;13.410;2023-03-09T07:58:33;98864.91;;;0.17;100.00
52625;BME280;38519;52.540;13.410;2023-03-09T08:00:59;98868.38;;;0.48;100.00
52625;BME280;38519;52.540;13.410;2023-03-09T08:03:24;98875.19;;;0.38;100.00
52625;BME280;38519;52.540;13.410;2023-03-09T08:05:50;98887.53;;;0.21;100.00
52625;BME280;38519;52.540;13.410;2023-03-09T08:08:19;98888.13;;;0.29;100.00
52625;BME280;38519;52.540;13.410;2023-03-09T08:10:46;98892.09;;;0.56;100.00
52625;BME280;38519;52.540;13.410;2023-03-09T08:13:12;98895.06;;;0.30;100.00
52625;BME280;38519;52.540;13.410;2023-03-09T08:15:38;98905.63;;;0.23;100.00
52625;BME280;38519;52.540;13.410;2023-03-09T08:18:03;98909.69;;;0.21;100.00
52625;BME280;38519;52.540;13.410;2023-03-09T08:20:29;98910.38;;;0.39;100.00
52625;BME280;38519;52.540;13.410;2023-03-09T08:22:54;98905.06;;;0.58;100.00
52625;BME280;38519;52.540;13.410;2023-03-09T08:25:19;98899.31;;;0.50;100.00
52625;BME280;38519;52.540;13.410;2023-03-09T08:27:44;98918.53;;;0.65;100.00
52625;BME280;38519;52.540;13.410;2023-03-09T08:30:14;98921.00;;;0.53;100.00
52625;BME280;38519;52.540;13.410;2023-03-09T08:32:40;98920.97;;;0.64;100.00
52625;BME280;38519;52.540;13.410;2023-03-09T08:35:05;98934.47;;;0.51;100.00
52625;BME280;38519;52.540;13.410;2023-03-09T08:37:30;98937.44;;;0.66;100.00
52625;BME280;38519;52.540;13.410;2023-03-09T08:39:56;98935.13;;;0.28;100.00
52625;BME280;38519;52.540;13.410;2023-03-09T08:42:21;98927.69;;;0.51;100.00
52625;BME280;38519;52.540;13.410;2023-03-09T08:44:46;98941.16;;;0.49;100.00
52625;BME280;38519;52.540;13.410;2023-03-09T08:47:12;98941.16;;;0.49;100.00
52625;BME280;38519;52.540;13.410;2023-03-09T08:49:38;98942.72;;;0.47;100.00
52625;BME280;38519;52.540;13.410;2023-03-09T08:52:05;98947.47;;;0.42;100.00
52625;BME280;38519;52.540;13.410;2023-03-09T08:54:31;98946.56;;;0.31;100.00
52625;BME280;38519;52.540;13.410;2023-03-09T08:56:56;98951.06;;;0.34;100.00
52625;BME280;38519;52.540;13.410;2023-03-09T08:59:21;98947.06;;;0.38;100.00
52625;BME280;38519;52.540;13.410;2023-03-09T09:01:47;98946.41;;;0.30;100.00
52625;BME280;38519;52.540;13.410;2023-03-09T09:04:12;98948.09;;;0.29;100.00
52625;BME280;38519;52.540;13.410;2023-03-09T09:06:37;98964.25;;;0.59;100.00
52625;BME280;38519;52.540;13.410;2023-03-09T09:09:03;98964.50;;;0.42;100.00
52625;BME280;38519;52.540;13.410;2023-03-09T09:11:29;98967.22;;;0.33;100.00
52625;BME280;38519;52.540;13.410;2023-03-09T09:13:55;98975.56;;;0.51;100.00
52625;BME280;38519;52.540;13.410;2023-03-09T09:16:21;98989.69;;;0.77;100.00
52625;BME280;38519;52.540;13.410;2023-03-09T09:18:46;98987.63;;;0.83;100.00
52625;BME280;38519;52.540;13.410;2023-03-09T09:21:13;98987.00;;;0.85;100.00
52625;BME280;38519;52.540;13.410;2023-03-09T09:23:38;98994.31;;;0.70;100.00
52625;BME280;38519;52.540;13.410;2023-03-09T09:26:05;98992.66;;;0.61;100.00
52625;BME280;38519;52.540;13.410;2023-03-09T09:28:30;98999.72;;;0.43;100.00
52625;BME280;38519;52.540;13.410;2023-03-09T09:30:56;99003.44;;;0.36;100.00
52625;BME280;38519;52.540;13.410;2023-03-09T09:33:22;99005.34;;;0.59;100.00
52625;BME280;38519;52.540;13.410;2023-03-09T09:35:57;99008.47;;;0.76;100.00
52625;BME280;38519;52.540;13.410;2023-03-09T09:38:23;99009.97;;;0.53;100.00
52625;BME280;38519;52.540;13.410;2023-03-09T09:40:48;99006.91;;;0.57;100.00
52625;BME280;38519;52.540;13.410;2023-03-09T09:43:14;99020.50;;;0.46;100.00
52625;BME280;38519;52.540;13.410;2023-03-09T09:45:39;99024.09;;;0.38;100.00
52625;BME280;38519;52.540;13.410;2023-03-09T09:48:08;99025.38;;;0.53;100.00
52625;BME280;38519;52.540;13.410;2023-03-09T09:55:55;99034.78;;;0.73;100.00
52625;BME280;38519;52.540;13.410;2023-03-09T09:58:24;99043.41;;;0.84;100.00
52625;BME280;38519;52.540;13.410;2023-03-09T10:00:54;99040.78;;;0.53;100.00
52625;BME280;38519;52.540;13.410;2023-03-09T10:03:26;99031.31;;;0.72;100.00
52625;BME280;38519;52.540;13.410;2023-03-09T10:05:57;99037.97;;;0.70;100.00
52625;BME280;38519;52.540;13.410;2023-03-09T10:10:49;99031.56;;;0.65;100.00
52625;BME280;38519;52.540;13.410;2023-03-09T10:13:16;99038.13;;;0.62;100.00
52625;BME280;38519;52.540;13.410;2023-03-09T10:15:43;99047.78;;;0.64;100.00
52625;BME280;38519;52.540;13.410;2023-03-09T10:18:16;99059.81;;;0.96;100.00
52625;BME280;38519;52.540;13.410;2023-03-09T10:20:45;99057.78;;;0.61;100.00
52625;BME280;38519;52.540;13.410;2023-03-09T10:23:15;99058.19;;;0.66;100.00
52625;BME280;38519;52.540;13.410;2023-03-09T10:25:42;99050.03;;;0.51;100.00
52625;BME280;38519;52.540;13.410;2023-03-09T10:28:18;99061.09;;;0.50;100.00
52625;BME280;38519;52.540;13.410;2023-03-09T10:30:55;99068.81;;;0.60;100.00
52625;BME280;38519;52.540;13.410;2023-03-09T10:35:55;99072.94;;;0.89;100.00
52625;BME280;38519;52.540;13.410;2023-03-09T10:38:23;99087.44;;;1.09;100.00
52625;BME280;38519;52.540;13.410;2023-03-09T10:40:50;99096.22;;;0.90;100.00
52625;BME280;38519;52.540;13.410;2023-03-09T10:43:27;99101.97;;;1.19;100.00
52625;BME280;38519;52.540;13.410;2023-03-09T10:45:53;99107.00;;;1.17;100.00
52625;BME280;38519;52.540;13.410;2023-03-09T10:48:19;99096.44;;;0.73;100.00
52625;BME280;38519;52.540;13.410;2023-03-09T10:50:54;99102.09;;;0.89;100.00
52625;BME280;38519;52.540;13.410;2023-03-09T10:55:48;99100.44;;;0.69;100.00
52625;BME280;38519;52.540;13.410;2023-03-09T10:58:20;99109.16;;;0.61;100.00
52625;BME280;38519;52.540;13.410;2023-03-09T11:03:45;99120.22;;;0.91;100.00
52625;BME280;38519;52.540;13.410;2023-03-09T11:08:55;99108.00;;;0.78;100.00
52625;BME280;38519;52.540;13.410;2023-03-09T11:11:22;99117.13;;;0.64;100.00
52625;BME280;38519;52.540;13.410;2023-03-09T11:13:50;99118.69;;;0.72;100.00
52625;BME280;38519;52.540;13.410;2023-03-09T11:16:31;99123.16;;;0.75;100.00
52625;BME280;38519;52.540;13.410;2023-03-09T11:19:12;99128.56;;;0.68;100.00
52625;BME280;38519;52.540;13.410;2023-03-09T11:21:38;99128.94;;;0.72;100.00
52625;BME280;38519;52.540;13.410;2023-03-09T11:24:06;99133.06;;;0.81;100.00
52625;BME280;38519;52.540;13.410;2023-03-09T11:26:34;99129.47;;;0.79;100.00
52625;BME280;38519;52.540;13.410;2023-03-09T11:33:58;99142.59;;;0.92;100.00
52625;BME280;38519;52.540;13.410;2023-03-09T11:41:52;99137.03;;;0.67;100.00
52625;BME280;38519;52.540;13.410;2023-03-09T11:44:22;99142.28;;;0.68;100.00
52625;BME280;38519;52.540;13.410;2023-03-09T11:46:48;99145.84;;;0.50;100.00
52625;BME280;38519;52.540;13.410;2023-03-09T11:49:16;99147.56;;;0.60;100.00
52625;BME280;38519;52.540;13.410;2023-03-09T11:51:49;99149.78;;;0.76;100.00
52625;BME280;38519;52.540;13.410;2023-03-09T11:56:43;99156.94;;;0.80;100.00
52625;BME280;38519;52.540;13.410;2023-03-09T12:01:47;99155.19;;;0.79;100.00
52625;BME280;38519;52.540;13.410;2023-03-09T12:04:15;99160.81;;;0.75;100.00
52625;BME280;38519;52.540;13.410;2023-03-09T12:06:57;99162.34;;;0.72;100.00
52625;BME280;38519;52.540;13.410;2023-03-09T12:15:14;99162.66;;;1.17;100.00
52625;BME280;38519;52.540;13.410;2023-03-09T12:17:46;99160.84;;;1.05;100.00
52625;BME280;38519;52.540;13.410;2023-03-09T12:20:31;99162.13;;;1.11;100.00
52625;BME280;38519;52.540;13.410;2023-03-09T12:22:57;99141.03;;;0.84;100.00
52625;BME280;38519;52.540;13.410;2023-03-09T12:25:23;99142.41;;;0.70;100.00
52625;BME280;38519;52.540;13.410;2023-03-09T12:27:52;99147.47;;;0.89;100.00
52625;BME280;38519;52.540;13.410;2023-03-09T12:32:43;99158.03;;;1.13;100.00
52625;BME280;38519;52.540;13.410;2023-03-09T12:42:55;99156.09;;;1.20;100.00
52625;BME280;38519;52.540;13.410;2023-03-09T12:55:44;99164.66;;;0.69;100.00
52625;BME280;38519;52.540;13.410;2023-03-09T13:01:02;99160.28;;;0.68;100.00
52625;BME280;38519;52.540;13.410;2023-03-09T13:05:57;99156.16;;;0.60;100.00
52625;BME280;38519;52.540;13.410;2023-03-09T13:08:28;99161.69;;;0.75;100.00
52625;BME280;38519;52.540;13.410;2023-03-09T13:13:40;99169.44;;;0.85;100.00
52625;BME280;38519;52.540;13.410;2023-03-09T13:18:56;99171.09;;;0.85;100.00
52625;BME280;38519;52.540;13.410;2023-03-09T13:21:39;99161.16;;;0.69;100.00
52625;BME280;38519;52.540;13.410;2023-03-09T13:24:10;99160.53;;;0.71;100.00
52625;BME280;38519;52.540;13.410;2023-03-09T13:26:36;99161.97;;;0.78;100.00
52625;BME280;38519;52.540;13.410;2023-03-09T13:29:06;99157.22;;;0.72;100.00
52625;BME280;38519;52.540;13.410;2023-03-09T13:31:32;99163.41;;;1.05;100.00
52625;BME280;38519;52.540;13.410;2023-03-09T13:33:57;99165.19;;;0.86;100.00
52625;BME280;38519;52.540;13.410;2023-03-09T13:36:23;99179.81;;;0.77;100.00
52625;BME280;38519;52.540;13.410;2023-03-09T13:38:52;99190.59;;;0.72;100.00
52625;BME280;38519;52.540;13.410;2023-03-09T13:41:19;99186.28;;;0.92;100.00
52625;BME280;38519;52.540;13.410;2023-03-09T13:43:49;99181.91;;;0.81;100.00
52625;BME280;38519;52.540;13.410;2023-03-09T13:48:45;99195.09;;;0.75;100.00
52625;BME280;38519;52.540;13.410;2023-03-09T13:51:32;99196.00;;;0.76;100.00
52625;BME280;38519;52.540;13.410;2023-03-09T13:53:58;99201.09;;;1.05;100.00
52625;BME280;38519;52.540;13.410;2023-03-09T13:56:24;99197.97;;;0.99;100.00
52625;BME280;38519;52.540;13.410;2023-03-09T13:58:49;99196.16;;;0.87;100.00
52625;BME280;38519;52.540;13.410;2023-03-09T14:01:27;99194.19;;;0.75;100.00
52625;BME280;38519;52.540;13.410;2023-03-09T14:03:54;99204.00;;;0.79;100.00
52625;BME280;38519;52.540;13.410;2023-03-09T14:06:22;99198.47;;;0.95;100.00